Time;durP1;ratioP1;P1;durP2;ratioP2;P2;SDS_P1;SDS_P2;PMS_P1;PMS_P2;Temp;Humidity;BMP_temperature;BMP_pressure;BME280_temperature;BME280_humidity;BME280_pressure;Samples;Min_cycle;Max_cycle;Signal;HPM_P1;HPM_P2
2022/06/21 00:00:13;;;;;;;2.10;1.30;;;17.50;83.00;;;16.67;61.76;97299.63;5107598;28;20492;-75
2022/06/21 00:02:39;;;;;;;2.05;1.40;;;17.50;83.30;;;16.67;61.88;97304.16;5104476;28;20417;-76
2022/06/21 00:05:12;;;;;;;3.85;1.00;;;17.50;83.40;;;16.62;62.05;97297.81;5098892;28;20443;-76
2022/06/21 00:07:38;;;;;;;4.28;1.10;;;17.50;83.80;;;16.58;62.28;97302.13;5109673;28;20885;-76
2022/06/21 00:10:11;;;;;;;1.23;1.10;;;17.40;83.80;;;16.55;62.12;97293.88;5108514;28;20458;-76
2022/06/21 00:12:36;;;;;;;1.70;1.23;;;17.40;84.20;;;16.48;62.38;97302.28;5108209;28;20397;-76
2022/06/21 00:15:03;;;;;;;1.75;1.30;;;17.30;84.30;;;16.42;62.37;97299.97;5109565;28;20423;-76
2022/06/21 00:17:31;;;;;;;1.77;1.20;;;17.30;84.60;;;16.33;62.89;97305.19;5097133;28;20762;-76
2022/06/21 00:19:56;;;;;;;1.77;1.30;;;17.20;85.10;;;16.24;62.88;97294.34;5089066;28;20540;-76
2022/06/21 00:22:22;;;;;;;1.70;1.60;;;17.20;85.50;;;16.21;63.36;97296.81;5092719;28;20901;-76
2022/06/21 00:24:49;;;;;;;1.23;1.13;;;17.10;86.00;;;16.13;63.73;97290.25;5109549;28;20416;-75
2022/06/21 00:27:18;;;;;;;1.83;1.13;;;17.10;86.70;;;16.08;63.80;97292.19;5107565;28;20882;-76
2022/06/21 00:29:44;;;;;;;2.10;1.27;;;17.00;87.10;;;16.03;63.89;97290.38;5102500;28;20445;-75
2022/06/21 00:32:17;;;;;;;2.60;1.58;;;16.90;87.40;;;15.99;63.94;97299.25;5090661;28;20405;-76
2022/06/21 00:34:46;;;;;;;1.85;1.20;;;16.90;87.90;;;15.95;64.08;97301.69;5103542;28;20463;-76
2022/06/21 00:37:15;;;;;;;1.65;1.27;;;16.90;88.10;;;15.89;64.49;97292.16;5071270;28;20433;-75
2022/06/21 00:39:41;;;;;;;1.42;1.30;;;16.80;88.70;;;15.84;64.67;97298.38;5088944;28;20401;-75
2022/06/21 00:42:19;;;;;;;2.05;1.40;;;16.80;89.00;;;15.81;64.72;97306.16;5089558;28;20409;-75
2022/06/21 00:44:54;;;;;;;1.77;1.27;;;16.70;89.40;;;15.77;64.92;97307.81;5095790;28;20401;-76
2022/06/21 00:47:27;;;;;;;1.30;1.10;;;16.70;90.10;;;15.78;65.33;97296.06;5095956;28;20904;-76
2022/06/21 00:49:57;;;;;;;2.63;1.35;;;16.70;90.50;;;15.77;65.26;97289.94;5095480;28;20428;-75
2022/06/21 00:52:38;;;;;;;1.40;1.30;;;16.70;90.70;;;15.70;65.31;97294.03;5091514;28;20413;-75
2022/06/21 00:55:12;;;;;;;1.40;1.23;;;16.60;90.60;;;15.66;65.58;97290.31;5102298;28;20388;-75
2022/06/21 00:57:47;;;;;;;1.70;1.40;;;16.60;90.80;;;15.61;65.87;97288.53;5113573;28;20491;-75
2022/06/21 01:00:27;;;;;;;2.63;1.33;;;16.50;91.10;;;15.59;66.09;97280.00;5112009;28;20404;-75
2022/06/21 01:02:56;;;;;;;3.10;1.40;;;16.50;91.50;;;15.59;66.10;97281.88;5105706;28;20402;-75
2022/06/21 01:05:27;;;;;;;2.00;1.27;;;16.50;91.60;;;15.55;66.07;97279.00;5104272;28;20487;-75
2022/06/21 01:07:55;;;;;;;4.35;1.58;;;16.50;91.50;;;15.49;66.34;97283.56;5112974;28;20892;-75
2022/06/21 01:10:23;;;;;;;1.88;1.33;;;16.40;91.70;;;15.45;66.24;97276.41;5111573;28;20423;-75
2022/06/21 01:12:54;;;;;;;2.63;1.35;;;16.40;91.90;;;15.41;66.48;97278.84;5112802;28;20408;-76
2022/06/21 01:15:25;;;;;;;1.50;1.27;;;16.30;92.10;;;15.36;66.67;97283.44;5101817;28;20398;-75
2022/06/21 01:17:57;;;;;;;2.60;1.50;;;16.30;92.30;;;15.34;66.81;97278.38;5108189;28;20743;-75
2022/06/21 01:20:30;;;;;;;1.35;1.20;;;16.30;92.60;;;15.34;66.71;97280.25;5111513;28;20469;-75
2022/06/21 01:23:15;;;;;;;2.40;1.48;;;16.30;92.60;;;15.31;66.73;97275.50;5112598;28;20410;-75
2022/06/21 01:25:55;;;;;;;2.85;1.40;;;16.20;92.50;;;15.30;66.73;97263.25;5098480;28;20497;-75
2022/06/21 01:28:22;;;;;;;1.70;1.37;;;16.20;92.60;;;15.27;66.53;97277.13;5110695;28;20400;-75
2022/06/21 01:30:51;;;;;;;2.33;1.38;;;16.20;92.80;;;15.29;66.79;97280.31;5096494;28;20412;-75
2022/06/21 01:33:26;;;;;;;5.88;1.40;;;16.20;92.80;;;15.28;66.79;97255.53;5112380;28;20408;-75
2022/06/21 01:35:55;;;;;;;2.72;1.50;;;16.20;93.20;;;15.32;67.12;97253.91;5095834;28;20406;-75
2022/06/21 01:38:28;;;;;;;2.20;1.50;;;16.20;93.50;;;15.38;67.35;97241.28;5084850;28;20421;-75
2022/06/21 01:41:01;;;;;;;1.70;1.45;;;16.20;93.40;;;15.42;66.95;97231.63;5092243;28;20408;-76
2022/06/21 01:43:31;;;;;;;1.25;1.15;;;16.30;93.50;;;15.46;66.91;97222.78;5092639;28;20402;-76
2022/06/21 01:46:02;;;;;;;1.88;1.33;;;16.30;93.70;;;15.54;67.29;97221.38;5108404;28;20495;-76
2022/06/21 01:48:34;;;;;;;1.83;1.33;;;16.40;93.80;;;15.62;67.25;97214.63;5084238;28;20411;-76
2022/06/21 01:51:07;;;;;;;1.83;1.20;;;16.50;94.00;;;15.64;67.06;97205.22;5091749;28;20472;-76
2022/06/21 01:53:35;;;;;;;1.63;1.23;;;16.50;93.90;;;15.60;67.06;97198.88;5092308;28;20410;-76
2022/06/21 01:56:06;;;;;;;1.50;1.40;;;16.50;93.80;;;15.59;66.60;97201.84;5108812;28;20401;-76
2022/06/21 01:58:45;;;;;;;1.63;1.20;;;16.40;93.60;;;15.50;66.65;97205.09;5108858;28;20880;-76
2022/06/21 02:01:18;;;;;;;1.40;1.30;;;16.40;93.60;;;15.46;67.09;97203.31;5082080;28;20548;-76
2022/06/21 02:03:47;;;;;;;2.77;1.47;;;16.40;94.00;;;15.42;67.05;97207.63;5092137;28;20510;-75
2022/06/21 02:06:16;;;;;;;2.70;1.42;;;16.30;94.00;;;15.40;67.13;97207.94;5110068;28;20409;-76
2022/06/21 02:08:47;;;;;;;1.58;1.17;;;16.30;94.30;;;15.33;67.47;97209.34;5111473;28;20396;-76
2022/06/21 02:11:19;;;;;;;2.15;1.30;;;16.20;94.30;;;15.28;67.19;97206.72;5111706;28;20461;-76
2022/06/21 02:14:28;;;;;;;1.30;1.20;;;16.20;94.40;;;15.22;67.21;97206.00;5103617;28;20409;-75
2022/06/21 02:16:40;;;;;;;2.58;1.45;;;16.10;94.30;;;15.15;67.50;97207.44;5091301;28;20460;-76
2022/06/21 02:19:09;;;;;;;2.15;1.35;;;16.00;94.60;;;15.07;67.82;97198.97;5090943;28;20406;-75
2022/06/21 02:21:41;;;;;;;1.45;1.35;;;16.00;94.80;;;15.03;67.74;97191.84;5091386;28;20455;-75
2022/06/21 02:24:12;;;;;;;2.78;1.55;;;15.90;94.90;;;14.98;68.08;97197.22;5091806;28;20918;-75
2022/06/21 02:26:39;;;;;;;2.42;1.70;;;15.90;95.10;;;14.92;68.14;97193.00;5087792;28;20490;-75
2022/06/21 02:29:08;;;;;;;2.40;1.50;;;15.80;95.30;;;14.87;68.35;97196.53;5091015;28;20895;-75
2022/06/21 02:31:35;;;;;;;4.68;1.45;;;15.80;95.50;;;14.89;67.93;97196.22;5091206;28;20497;-75
2022/06/21 02:34:05;;;;;;;2.70;1.70;;;15.80;95.40;;;14.83;67.75;97194.69;5091455;28;20492;-75
2022/06/21 02:36:37;;;;;;;1.87;1.53;;;15.70;95.30;;;14.75;68.10;97203.31;5111010;28;20412;-75
2022/06/21 02:39:06;;;;;;;1.45;1.35;;;15.70;95.50;;;14.69;68.31;97198.03;5110967;28;20454;-75
2022/06/21 02:41:36;;;;;;;2.50;1.60;;;15.60;96.20;;;14.69;68.20;97194.59;5109787;28;20401;-75
2022/06/21 02:44:13;;;;;;;2.45;1.42;;;15.60;95.90;;;14.65;68.39;97191.69;5110253;28;20408;-75
2022/06/21 02:46:45;;;;;;;3.95;1.38;;;15.60;96.00;;;14.62;68.60;97194.91;5090923;28;20915;-75
2022/06/21 02:49:16;;;;;;;3.10;1.70;;;15.50;96.20;;;14.64;68.54;97194.66;5099728;28;20944;-75
2022/06/21 02:51:47;;;;;;;2.17;1.45;;;15.50;96.20;;;14.62;68.33;97196.78;5111265;28;20396;-75
2022/06/21 02:54:24;;;;;;;2.00;1.52;;;15.50;96.10;;;14.57;68.41;97204.84;5109490;28;20407;-75
2022/06/21 02:57:08;;;;;;;1.80;1.40;;;15.40;96.10;;;14.54;68.27;97211.50;5110935;28;20432;-75
2022/06/21 02:59:38;;;;;;;2.42;1.73;;;15.40;96.10;;;14.51;68.37;97212.06;5100724;28;20401;-75
2022/06/21 03:02:10;;;;;;;2.38;1.40;;;15.40;96.20;;;14.48;68.26;97191.31;5103229;28;20434;-75
2022/06/21 03:04:40;;;;;;;2.60;1.58;;;15.40;96.20;;;14.47;68.43;97187.06;5101924;28;20406;-75
2022/06/21 03:07:12;;;;;;;2.95;1.60;;;15.40;96.30;;;14.43;68.54;97191.38;5073677;28;20965;-75
2022/06/21 03:09:38;;;;;;;1.92;1.30;;;15.30;96.30;;;14.44;68.44;97182.28;5095135;28;20885;-75
2022/06/21 03:12:07;;;;;;;2.13;1.65;;;15.30;96.30;;;14.42;68.44;97175.69;5110438;28;20407;-75
2022/06/21 03:14:37;;;;;;;1.55;1.40;;;15.30;96.40;;;14.38;68.57;97180.75;5109789;28;20433;-75
2022/06/21 03:17:08;;;;;;;1.88;1.50;;;15.30;96.60;;;14.36;68.57;97176.78;5101672;28;20398;-75
2022/06/21 03:19:38;;;;;;;2.47;1.50;;;15.30;96.70;;;14.36;68.86;97182.09;5075364;28;20471;-75
2022/06/21 03:22:22;;;;;;;2.90;1.70;;;15.30;96.90;;;14.36;68.80;97180.19;5090425;28;20409;-75
2022/06/21 03:24:52;;;;;;;2.83;1.80;;;15.30;96.70;;;14.35;68.36;97175.97;5105318;28;20429;-75
2022/06/21 03:27:27;;;;;;;3.08;1.65;;;15.30;96.50;;;14.34;68.38;97171.72;5099782;28;20394;-75
2022/06/21 03:29:55;;;;;;;3.00;1.63;;;15.30;96.50;;;14.33;68.20;97165.59;5088809;28;20855;-75
2022/06/21 03:32:22;;;;;;;3.92;1.40;;;15.30;96.40;;;14.34;68.16;97163.72;5090368;28;20406;-76
2022/06/21 03:34:50;;;;;;;2.35;1.70;;;15.30;96.50;;;14.38;67.94;97155.97;5089716;28;20434;-75
2022/06/21 03:37:16;;;;;;;1.70;1.50;;;15.30;96.20;;;14.40;68.10;97156.50;5101755;28;20418;-75
2022/06/21 03:42:32;;;;;;;1.90;1.70;;;15.30;96.10;;;14.40;68.13;97159.97;5090135;28;21036;-76
2022/06/21 03:45:05;;;;;;;2.53;1.65;;;15.30;96.30;;;14.44;67.79;97166.31;5089925;28;20412;-74
2022/06/21 03:47:38;;;;;;;2.55;1.60;;;15.30;96.20;;;14.45;68.11;97167.09;5086700;28;20780;-74
2022/06/21 03:50:10;;;;;;;2.35;1.77;;;15.30;96.30;;;14.48;67.96;97171.88;5089009;28;20405;-75
2022/06/21 03:52:41;;;;;;;3.33;1.60;;;15.30;96.40;;;14.51;67.93;97168.66;5089987;28;20907;-75
2022/06/21 03:55:23;;;;;;;3.20;1.50;;;15.40;96.30;;;14.55;67.64;97175.00;5090631;28;20409;-75
2022/06/21 03:57:57;;;;;;;1.98;1.40;;;15.40;96.10;;;14.59;67.51;97168.81;5086288;28;20443;-74
2022/06/21 04:00:31;;;;;;;2.72;1.70;;;15.40;95.90;;;14.64;67.41;97158.13;5090131;28;20406;-74
2022/06/21 04:03:04;;;;;;;2.30;1.52;;;15.50;96.00;;;14.72;67.54;97148.75;5087028;28;20763;-75
2022/06/21 04:05:35;;;;;;;1.50;1.38;;;15.60;96.20;;;14.79;67.64;97157.19;5089075;28;20763;-75
2022/06/21 04:08:08;;;;;;;2.25;1.55;;;15.70;96.30;;;14.86;67.59;97157.63;5089265;28;20402;-75
2022/06/21 04:10:41;;;;;;;1.88;1.52;;;15.70;96.30;;;14.93;67.45;97143.97;5088754;28;20474;-75
2022/06/21 04:13:17;;;;;;;3.13;1.55;;;15.80;96.10;;;14.97;67.54;97144.97;5090334;28;20421;-75
2022/06/21 04:15:49;;;;;;;2.83;1.48;;;15.80;96.10;;;15.03;67.62;97146.53;5089060;28;20406;-75
2022/06/21 04:18:21;;;;;;;1.80;1.50;;;15.90;96.30;;;15.11;67.31;97149.31;5086545;28;20402;-74
2022/06/21 04:20:55;;;;;;;1.63;1.40;;;15.90;95.90;;;15.16;66.42;97158.34;5089520;28;20445;-75
2022/06/21 04:23:30;;;;;;;1.95;1.52;;;16.00;95.10;;;15.21;66.29;97161.75;5071288;28;20914;-74
2022/06/21 04:26:04;;;;;;;3.05;1.60;;;16.00;94.90;;;15.28;65.98;97156.84;5080533;28;20410;-75
2022/06/21 04:28:38;;;;;;;2.38;1.40;;;16.10;94.60;;;15.34;65.95;97149.56;5070534;28;20991;-75
2022/06/21 04:31:12;;;;;;;1.92;1.45;;;16.20;94.50;;;15.41;65.83;97150.03;5093802;28;20406;-73
2022/06/21 04:33:46;;;;;;;2.90;1.33;;;16.20;94.50;;;15.48;66.08;97158.47;5090553;28;20498;-75
2022/06/21 04:36:19;;;;;;;1.80;1.30;;;16.30;94.70;;;15.56;65.57;97151.72;5094474;28;20439;-75
2022/06/21 04:38:53;;;;;;;2.37;1.33;;;16.40;94.50;;;15.62;65.71;97145.25;5074463;28;20410;-75
2022/06/21 04:41:29;;;;;;;2.60;1.50;;;16.40;94.30;;;15.65;64.70;97150.78;5095195;28;20487;-75
2022/06/21 04:44:00;;;;;;;3.53;1.70;;;16.40;93.40;;;15.68;64.51;97149.41;5091348;28;20446;-75
2022/06/21 04:46:35;;;;;;;2.17;1.58;;;16.50;93.10;;;15.70;64.23;97148.06;5093320;28;20463;-75
2022/06/21 04:49:10;;;;;;;2.83;1.63;;;16.50;92.70;;;15.75;64.40;97142.63;5093967;28;20401;-75
2022/06/21 04:51:42;;;;;;;2.50;1.33;;;16.60;92.70;;;15.81;64.18;97141.47;5093215;28;20413;-75
2022/06/21 04:54:18;;;;;;;2.90;1.50;;;16.60;92.50;;;15.88;63.98;97130.41;5093053;28;20771;-75
2022/06/21 04:57:05;;;;;;;3.05;1.70;;;16.70;92.30;;;15.94;62.97;97136.50;5089560;28;20413;-75
2022/06/21 04:59:34;;;;;;;2.20;1.50;;;16.70;91.40;;;16.00;62.80;97140.66;5103682;28;20439;-75
2022/06/21 05:02:04;;;;;;;3.33;1.90;;;16.80;91.10;;;16.07;62.43;97151.75;5110899;28;20397;-74
2022/06/21 05:04:33;;;;;;;5.63;1.65;;;16.90;90.90;;;16.15;61.59;97143.09;5085679;28;20405;-74
2022/06/21 05:07:05;;;;;;;3.63;1.73;;;16.90;90.00;;;16.22;60.66;97151.50;5108557;28;20408;-74
2022/06/21 05:09:34;;;;;;;6.13;2.22;;;17.00;87.90;;;16.27;58.98;97140.72;5112266;28;20439;-74
2022/06/21 05:12:04;;;;;;;3.78;1.50;;;17.00;84.30;;;16.30;58.53;97139.38;5112229;28;20411;-74
2022/06/21 05:14:36;;;;;;;2.88;1.80;;;17.10;83.40;;;16.34;58.39;97140.34;5092883;28;20409;-74
2022/06/21 05:17:06;;;;;;;2.63;1.70;;;17.10;82.70;;;16.39;58.01;97143.72;5075817;28;20879;-74
2022/06/21 05:19:36;;;;;;;5.07;1.80;;;17.20;82.20;;;16.46;57.94;97146.03;5092131;28;20887;-74
2022/06/21 05:22:09;;;;;;;3.60;1.75;;;17.20;81.80;;;16.50;56.96;97152.34;5091573;28;20866;-74
2022/06/21 05:24:35;;;;;;;2.72;1.70;;;17.30;80.20;;;16.55;56.47;97145.03;5092143;28;20398;-73
2022/06/21 05:27:09;;;;;;;3.00;1.63;;;17.30;79.90;;;16.59;56.69;97140.72;5092373;28;20417;-74
2022/06/21 05:29:43;;;;;;;5.75;2.13;;;17.40;78.90;;;16.62;54.94;97136.66;5086528;28;20424;-74
2022/06/21 05:32:16;;;;;;;5.40;2.30;;;17.40;76.30;;;16.62;54.21;97129.44;5092119;28;20413;-74
2022/06/21 05:34:47;;;;;;;3.28;1.70;;;17.40;75.10;;;16.66;54.73;97126.19;5096340;28;20398;-74
2022/06/21 05:37:24;;;;;;;4.05;1.73;;;17.40;75.70;;;16.75;55.19;97133.22;5109569;28;20484;-74
2022/06/21 05:39:52;;;;;;;3.97;1.85;;;17.50;76.30;;;16.86;55.01;97136.47;5095219;28;20499;-74
2022/06/21 05:42:22;;;;;;;4.57;1.95;;;17.60;75.90;;;16.97;54.57;97137.88;5083237;28;20413;-73
2022/06/21 05:44:53;;;;;;;3.00;1.50;;;17.70;74.90;;;17.08;54.49;97141.13;5099730;28;20488;-74
2022/06/21 05:47:26;;;;;;;2.20;1.38;;;17.80;75.00;;;17.20;54.67;97141.44;5101718;22;20446;-80
2022/06/21 05:49:54;;;;;;;3.00;1.63;;;17.90;75.20;;;17.28;54.74;97149.56;5071183;28;20469;-79
2022/06/21 05:52:26;;;;;;;5.15;2.15;;;18.00;75.20;;;17.34;54.68;97145.66;5062860;28;20400;-80
2022/06/21 05:54:57;;;;;;;6.18;1.80;;;18.10;75.20;;;17.34;54.22;97140.31;5071713;28;20418;-81
2022/06/21 05:57:27;;;;;;;3.45;1.73;;;18.10;74.20;;;17.32;54.10;97153.19;5067550;28;20430;-81
2022/06/21 05:59:54;;;;;;;2.55;1.55;;;18.10;74.00;;;17.25;53.88;97150.13;5066655;28;20443;-81
2022/06/21 06:02:31;;;;;;;4.35;1.77;;;18.00;74.20;;;17.21;54.19;97164.41;5058782;28;20506;-81
2022/06/21 06:05:05;;;;;;;8.07;1.80;;;17.90;73.90;;;17.15;53.91;97168.25;5066367;28;20913;-81
2022/06/21 06:07:38;;;;;;;2.78;1.45;;;17.90;73.60;;;17.12;54.53;97163.53;5062864;28;20415;-78
2022/06/21 06:10:08;;;;;;;4.13;1.55;;;17.80;74.40;;;17.12;54.71;97166.19;5070949;28;20399;-84
2022/06/21 06:12:40;;;;;;;2.53;1.50;;;17.80;74.40;;;17.10;54.59;97166.50;5070992;28;20414;-83
2022/06/21 06:15:11;;;;;;;2.40;1.40;;;17.80;74.50;;;17.09;54.78;97153.41;5072496;28;20497;-83
2022/06/21 06:17:47;;;;;;;2.67;1.50;;;17.80;74.60;;;17.07;54.68;97159.06;5071544;28;20426;-80
2022/06/21 06:20:25;;;;;;;4.78;2.33;;;17.80;74.40;;;16.99;53.45;97159.75;5072555;28;20491;-80
2022/06/21 06:22:59;;;;;;;7.93;2.00;;;17.70;72.70;;;16.95;54.34;97159.56;5071319;28;20912;-84
2022/06/21 06:25:32;;;;;;;5.68;1.92;;;17.70;73.70;;;16.94;54.33;97166.00;5071070;28;20777;-83
2022/06/21 06:28:04;;;;;;;2.22;1.45;;;17.70;74.00;;;16.95;54.50;97166.78;5071367;28;20404;-81
2022/06/21 06:30:38;;;;;;;4.07;1.65;;;17.70;74.00;;;17.00;55.06;97172.03;5056028;28;20404;-82
2022/06/21 06:33:16;;;;;;;2.95;1.77;;;17.70;74.80;;;17.04;55.24;97159.66;5071231;28;20404;-82
2022/06/21 06:35:44;;;;;;;3.50;1.70;;;17.80;75.20;;;17.09;55.73;97156.88;5069971;28;20399;-82
2022/06/21 06:38:13;;;;;;;2.83;1.57;;;17.80;75.70;;;17.15;56.10;97157.56;5070294;28;20412;-84
2022/06/21 06:40:45;;;;;;;3.15;1.77;;;17.90;76.30;;;17.20;56.27;97157.47;5073064;28;20408;-80
2022/06/21 06:43:17;;;;;;;3.22;1.73;;;18.00;76.80;;;17.24;56.43;97158.44;5071911;28;20418;-82
2022/06/21 06:45:43;;;;;;;2.78;1.60;;;18.00;77.00;;;17.27;56.42;97147.97;5071489;28;20413;-82
2022/06/21 06:48:20;;;;;;;4.43;2.10;;;18.00;76.80;;;17.28;55.13;97148.75;5058784;28;20426;-81
2022/06/21 06:50:52;;;;;;;2.47;1.60;;;18.00;74.80;;;17.32;55.38;97152.41;5056034;28;20891;-75
2022/06/21 06:53:27;;;;;;;3.17;1.70;;;18.00;75.10;;;17.38;55.50;97152.00;5060564;28;20441;-80
2022/06/21 06:55:59;;;;;;;3.22;1.80;;;18.10;75.60;;;17.45;55.76;97148.09;5061146;28;20507;-78
2022/06/21 06:58:31;;;;;;;3.33;1.58;;;18.20;75.70;;;17.49;55.10;97144.56;5063370;28;20492;-78
2022/06/21 07:01:02;;;;;;;3.35;1.50;;;18.20;75.10;;;17.56;55.02;97149.47;5057894;28;20419;-78
2022/06/21 07:03:34;;;;;;;2.72;1.60;;;18.30;74.90;;;17.63;55.23;97157.94;5056935;28;20413;-77
2022/06/21 07:06:06;;;;;;;5.40;1.70;;;18.40;75.20;;;17.68;54.98;97155.91;5059739;28;20790;-80
2022/06/21 07:08:40;;;;;;;6.03;2.03;;;18.40;74.80;;;17.71;53.86;97155.31;5062597;28;20495;-79
2022/06/21 07:11:15;;;;;;;4.72;1.80;;;18.40;73.00;;;17.74;54.03;97162.72;5069772;28;20402;-80
2022/06/21 07:13:42;;;;;;;4.22;1.70;;;18.40;73.30;;;17.80;54.49;97163.44;5069917;28;20406;-79
2022/06/21 07:16:14;;;;;;;5.20;2.03;;;18.50;73.80;;;17.92;54.61;97165.56;5063619;28;20546;-79
2022/06/21 07:18:47;;;;;;;3.75;1.63;;;18.60;74.20;;;18.08;54.66;97172.94;5064624;28;20927;-78
2022/06/21 07:21:14;;;;;;;3.05;1.90;;;18.80;75.30;;;18.31;53.88;97186.34;5063052;28;20411;-79
2022/06/21 07:23:41;;;;;;;3.40;1.75;;;18.90;73.20;;;18.51;52.48;97183.16;5058822;28;20417;-78
2022/06/21 07:26:17;;;;;;;5.70;2.27;;;19.20;71.50;;;18.67;51.79;97180.91;5063674;28;20783;-79
2022/06/21 07:28:48;;;;;;;4.57;1.77;;;19.30;70.30;;;18.90;52.10;97182.44;5054770;28;20899;-78
2022/06/21 07:31:19;;;;;;;3.85;1.90;;;19.50;70.60;;;19.14;51.96;97177.47;5069153;28;20461;-77
2022/06/21 07:33:50;;;;;;;2.97;1.85;;;19.70;70.60;;;19.30;50.87;97185.91;5067330;28;20411;-78
2022/06/21 07:36:23;;;;;;;3.43;1.70;;;19.90;68.80;;;19.46;50.98;97180.88;5068332;28;20396;-77
2022/06/21 07:38:55;;;;;;;3.17;1.60;;;20.10;69.00;;;19.61;50.78;97183.16;5066392;28;20483;-78
2022/06/21 07:41:29;;;;;;;2.45;1.55;;;20.20;68.70;;;19.79;50.92;97183.94;5068359;28;20506;-81
2022/06/21 07:44:02;;;;;;;3.43;1.70;;;20.40;68.60;;;19.90;50.25;97182.53;5073890;28;20412;-84
2022/06/21 07:46:32;;;;;;;3.80;1.93;;;20.50;67.80;;;19.99;49.36;97167.22;5069034;28;20423;-79
2022/06/21 07:49:13;;;;;;;2.50;1.48;;;20.60;66.40;;;20.05;49.25;97164.03;5069159;28;20399;-77
2022/06/21 07:51:43;;;;;;;4.10;1.70;;;20.70;66.40;;;20.05;49.53;97150.63;5064173;28;20815;-77
2022/06/21 07:54:16;;;;;;;5.93;1.80;;;20.70;66.40;;;20.05;49.60;97147.13;5068891;28;20423;-78
2022/06/21 07:56:48;;;;;;;3.78;1.60;;;20.70;66.40;;;20.00;49.70;97145.38;5062935;28;20467;-79
2022/06/21 07:59:18;;;;;;;5.07;1.65;;;20.60;66.30;;;20.02;49.25;97142.38;5063223;28;20429;-78
2022/06/21 08:07:33;;;;;;;5.68;1.85;;;20.90;65.40;;;20.39;47.34;97116.72;5069280;28;20773;-77
2022/06/21 08:10:07;;;;;;;2.95;1.52;;;21.00;63.50;;;20.46;47.61;97112.44;5065840;28;20901;-79
2022/06/21 08:12:33;;;;;;;5.45;1.65;;;21.00;63.60;;;20.51;47.53;97108.81;5061398;28;20411;-79
2022/06/21 08:15:00;;;;;;;5.35;1.80;;;21.10;63.60;;;20.46;46.64;97101.69;5060117;28;20465;-81
2022/06/21 08:17:35;;;;;;;5.32;1.60;;;21.10;62.10;;;20.44;47.01;97103.94;5062107;28;20978;-80
2022/06/21 08:20:11;;;;;;;3.42;1.60;;;21.10;62.50;;;20.43;46.93;97112.31;5068560;28;20884;-80
2022/06/21 08:22:45;;;;;;;5.03;1.60;;;21.10;62.70;;;20.33;45.87;97104.53;5067975;28;20400;-83
2022/06/21 08:25:22;;;;;;;4.30;1.80;;;20.90;61.00;;;20.20;45.33;97113.59;5061311;28;20914;-83
2022/06/21 08:27:54;;;;;;;4.15;1.52;;;20.70;60.10;;;20.19;46.10;97117.38;5064168;28;20404;-81
2022/06/21 08:30:29;;;;;;;4.73;1.90;;;20.80;61.40;;;20.21;46.09;97099.06;5074830;28;20412;-83
2022/06/21 08:33:02;;;;;;;3.88;1.52;;;20.80;61.10;;;20.30;46.35;97102.50;5077315;28;20426;-86
2022/06/21 08:35:34;;;;;;;4.40;1.73;;;20.90;61.60;;;20.35;46.47;97102.38;5069897;28;20422;-81
2022/06/21 08:38:09;;;;;;;3.63;1.73;;;20.90;61.40;;;20.45;46.69;97100.09;5068940;28;20415;-86
2022/06/21 08:41:52;;;;;;;4.15;1.55;;;21.00;61.70;;;20.61;45.96;97113.81;5069484;28;20400;-86
2022/06/21 08:48:44;;;;;;;3.05;1.50;;;21.30;61.70;;;20.70;45.81;97154.94;5065547;28;20415;-85
2022/06/21 08:52:29;;;;;;;3.45;1.67;;;21.30;60.90;;;20.61;45.90;97131.84;5051606;28;20409;-82
2022/06/21 08:55:13;;;;;;;3.85;1.80;;;21.20;60.80;;;20.52;46.25;97112.28;5061226;28;20459;-85
2022/06/21 08:57:51;;;;;;;2.90;1.70;;;21.10;61.10;;;20.45;47.10;97102.00;5065007;28;20404;-86
2022/06/21 09:00:35;;;;;;;4.35;1.90;;;21.10;62.90;;;20.40;49.94;97104.88;5071594;28;20475;-83
2022/06/21 09:03:22;;;;;;;7.25;2.50;;;21.00;65.70;;;20.33;51.92;97115.31;5061680;28;20427;-85
2022/06/21 09:06:11;;;;;;;5.00;2.00;;;21.00;68.20;;;20.28;52.36;97112.78;5072078;28;20897;-84
2022/06/21 09:09:13;;;;;;;6.93;2.40;;;20.90;69.10;;;20.26;51.50;97112.31;5056194;28;20403;-85
2022/06/21 09:11:49;;;;;;;3.90;1.77;;;20.80;67.80;;;20.42;51.77;97108.81;5051169;28;20970;-85
2022/06/21 09:14:39;;;;;;;3.58;1.85;;;21.00;68.70;;;20.75;50.81;97102.88;5074169;28;20494;-83
2022/06/21 09:17:18;;;;;;;5.05;1.90;;;21.30;67.60;;;20.98;49.58;97100.66;5064386;28;20407;-81
2022/06/21 09:20:03;;;;;;;3.05;1.55;;;21.50;65.80;;;21.11;48.39;97108.53;5071771;28;20411;-83
2022/06/21 09:22:38;;;;;;;4.47;1.75;;;21.70;64.40;;;21.21;47.56;97115.44;5072101;28;20404;-82
2022/06/21 09:25:17;;;;;;;6.57;2.67;;;21.80;63.40;;;21.23;46.64;97122.09;5072201;28;20404;-82
2022/06/21 09:27:48;;;;;;;3.72;2.00;;;21.80;61.80;;;21.23;46.06;97129.38;5073048;28;20525;-84
2022/06/21 09:30:18;;;;;;;5.40;1.60;;;21.80;60.90;;;21.27;45.90;97116.88;5071948;28;20420;-85
2022/06/21 09:32:55;;;;;;;4.47;1.95;;;21.80;61.00;;;21.32;46.35;97123.94;5070857;28;20435;-82
2022/06/21 09:35:34;;;;;;;5.20;1.75;;;21.90;61.40;;;21.35;46.15;97123.31;5064823;28;20414;-79
2022/06/21 09:38:17;;;;;;;3.80;1.70;;;21.90;60.80;;;21.33;44.73;97112.88;5071266;28;20410;-85
2022/06/21 09:40:50;;;;;;;3.78;1.80;;;21.90;59.40;;;21.39;44.90;97119.63;5067261;28;20775;-84
2022/06/21 09:43:29;;;;;;;7.87;2.33;;;22.00;59.80;;;21.47;44.40;97118.00;5071316;28;20443;-86
2022/06/21 09:46:05;;;;;;;3.70;1.80;;;22.00;59.00;;;21.53;44.47;97116.69;5070181;28;20514;-84
2022/06/21 09:48:43;;;;;;;5.87;2.20;;;22.10;59.00;;;21.63;44.70;97129.75;5071801;28;20415;-84
2022/06/21 09:51:24;;;;;;;3.78;1.88;;;22.20;59.30;;;21.78;44.85;97115.69;5070122;28;20412;-83
2022/06/21 09:54:05;;;;;;;4.22;1.90;;;22.30;59.60;;;21.89;44.73;97111.47;5071001;28;20396;-83
2022/06/21 09:56:42;;;;;;;4.22;1.90;;;22.40;59.20;;;22.04;44.84;97098.53;5071483;28;20411;-81
2022/06/21 09:59:17;;;;;;;5.27;1.93;;;22.50;59.30;;;22.16;44.84;97093.97;5065547;28;20432;-84
2022/06/21 10:01:53;;;;;;;4.25;1.75;;;22.70;59.40;;;22.35;44.37;97085.34;5073822;28;20416;-83
2022/06/21 10:04:29;;;;;;;4.00;1.75;;;22.80;59.10;;;22.45;44.14;97095.72;5074402;28;20411;-84
2022/06/21 10:07:09;;;;;;;5.50;2.10;;;22.90;58.60;;;22.55;43.77;97097.22;5072778;28;20901;-85
2022/06/21 10:09:59;;;;;;;4.35;2.00;;;23.10;58.50;;;22.59;43.72;97092.69;5053315;28;20413;-86
2022/06/21 10:12:41;;;;;;;3.42;1.80;;;23.10;58.00;;;22.70;44.43;97077.66;5065713;28;20408;-83
2022/06/21 10:15:46;;;;;;;3.38;1.88;;;23.20;58.70;;;22.83;43.79;97083.88;5071417;28;20407;-80
2022/06/21 10:18:39;;;;;;;2.80;1.70;;;23.30;58.40;;;22.95;43.13;97086.56;5071099;28;20473;-85
2022/06/21 10:21:38;;;;;;;3.58;1.70;;;23.40;57.50;;;23.12;43.66;97081.72;5075587;28;20494;-84
2022/06/21 10:24:42;;;;;;;5.65;2.20;;;23.60;58.10;;;23.31;43.23;97073.00;5072157;28;20403;-83
2022/06/21 10:27:53;;;;;;;2.22;1.70;;;23.80;57.60;;;23.58;43.12;97070.72;5063142;28;20417;-85
2022/06/21 10:30:43;;;;;;;3.88;1.80;;;23.90;57.40;;;23.95;42.19;97055.94;5029154;28;20411;-83
2022/06/21 10:33:47;;;;;;;3.97;1.65;;;24.30;56.90;;;24.66;42.27;97060.47;5065281;28;20410;-84
2022/06/21 10:36:46;;;;;;;3.53;1.67;;;25.00;56.80;;;25.78;40.32;97053.34;5062887;28;20411;-84
2022/06/21 10:39:51;;;;;;;3.20;1.60;;;26.10;55.40;;;27.04;37.47;97051.66;5061523;28;20431;-84
2022/06/21 10:42:46;;;;;;;5.55;1.83;;;27.30;51.90;;;28.19;36.06;97042.66;5058483;28;20521;-85
2022/06/21 10:45:40;;;;;;;5.22;1.80;;;28.50;50.20;;;29.29;33.07;97029.88;5061521;28;20417;-82
2022/06/21 10:48:39;;;;;;;3.40;1.60;;;29.50;46.90;;;30.27;32.22;97033.38;5058880;28;20412;-83
2022/06/21 10:51:21;;;;;;;2.53;1.52;;;30.50;46.30;;;31.19;30.42;97021.66;5049112;28;20418;-81
2022/06/21 10:54:20;;;;;;;3.65;1.70;;;31.40;44.20;;;32.14;29.79;97020.47;5060293;28;20401;-83
2022/06/21 10:57:15;;;;;;;4.00;1.60;;;32.30;43.40;;;32.91;28.55;97007.41;5061183;28;20412;-83
2022/06/21 11:03:27;;;;;;;4.50;1.50;;;33.80;40.00;;;33.95;25.56;97016.81;5066133;28;20411;-83
2022/06/21 11:06:05;;;;;;;3.55;1.90;;;34.30;37.60;;;34.11;24.28;97010.69;5074002;28;20817;-83
2022/06/21 11:08:41;;;;;;;2.40;1.50;;;34.50;36.50;;;34.54;25.14;97008.09;5054161;28;20404;-87